sensor_id;sensor_type;location;lat;lon;timestamp;P1;durP1;ratioP1;P2;durP2;ratioP2
8317;SDS011;4196;48.926;8.964;2023-02-01T00:02:08;1.30;;;1.20;;
8317;SDS011;4196;48.926;8.964;2023-02-01T00:04:55;1.43;;;1.33;;
8317;SDS011;4196;48.926;8.964;2023-02-01T00:07:41;1.93;;;1.43;;
8317;SDS011;4196;48.926;8.964;2023-02-01T00:10:27;2.67;;;1.97;;
8317;SDS011;4196;48.926;8.964;2023-02-01T00:13:14;1.80;;;1.70;;
8317;SDS011;4196;48.926;8.964;2023-02-01T00:16:04;3.47;;;1.40;;
8317;SDS011;4196;48.926;8.964;2023-02-01T00:18:52;1.40;;;1.30;;
8317;SDS011;4196;48.926;8.964;2023-02-01T00:21:43;3.83;;;1.63;;
8317;SDS011;4196;48.926;8.964;2023-02-01T00:24:31;3.23;;;1.80;;
8317;SDS011;4196;48.926;8.964;2023-02-01T00:27:17;1.53;;;1.43;;
8317;SDS011;4196;48.926;8.964;2023-02-01T00:30:07;1.80;;;1.30;;
8317;SDS011;4196;48.926;8.964;2023-02-01T00:32:53;1.47;;;1.30;;
8317;SDS011;4196;48.926;8.964;2023-02-01T00:35:40;3.47;;;2.03;;
8317;SDS011;4196;48.926;8.964;2023-02-01T00:38:27;3.63;;;2.10;;
8317;SDS011;4196;48.926;8.964;2023-02-01T00:41:16;1.40;;;1.27;;
8317;SDS011;4196;48.926;8.964;2023-02-01T00:44:04;2.63;;;1.73;;
8317;SDS011;4196;48.926;8.964;2023-02-01T00:46:50;1.70;;;1.47;;
8317;SDS011;4196;48.926;8.964;2023-02-01T00:49:37;2.77;;;1.60;;
8317;SDS011;4196;48.926;8.964;2023-02-01T00:52:23;1.83;;;1.60;;
8317;SDS011;4196;48.926;8.964;2023-02-01T00:55:10;1.40;;;1.30;;
8317;SDS011;4196;48.926;8.964;2023-02-01T00:57:57;1.40;;;1.30;;
8317;SDS011;4196;48.926;8.964;2023-02-01T01:00:43;1.83;;;1.60;;
8317;SDS011;4196;48.926;8.964;2023-02-01T01:03:30;5.83;;;2.17;;
8317;SDS011;4196;48.926;8.964;2023-02-01T01:06:22;2.07;;;1.40;;
8317;SDS011;4196;48.926;8.964;2023-02-01T01:09:10;2.03;;;1.20;;
8317;SDS011;4196;48.926;8.964;2023-02-01T01:11:57;3.07;;;1.47;;
8317;SDS011;4196;48.926;8.964;2023-02-01T01:14:50;1.30;;;1.20;;
8317;SDS011;4196;48.926;8.964;2023-02-01T01:17:36;1.50;;;1.30;;
8317;SDS011;4196;48.926;8.964;2023-02-01T01:20:23;1.27;;;1.17;;
8317;SDS011;4196;48.926;8.964;2023-02-01T01:23:09;1.40;;;1.13;;
8317;SDS011;4196;48.926;8.964;2023-02-01T01:25:55;1.70;;;1.60;;
8317;SDS011;4196;48.926;8.964;2023-02-01T01:28:42;1.03;;;1.03;;
8317;SDS011;4196;48.926;8.964;2023-02-01T01:31:28;1.30;;;1.20;;
8317;SDS011;4196;48.926;8.964;2023-02-01T01:34:16;1.73;;;1.10;;
8317;SDS011;4196;48.926;8.964;2023-02-01T01:37:02;1.23;;;1.03;;
8317;SDS011;4196;48.926;8.964;2023-02-01T01:39:48;1.70;;;1.40;;
8317;SDS011;4196;48.926;8.964;2023-02-01T01:42:44;1.50;;;1.40;;
8317;SDS011;4196;48.926;8.964;2023-02-01T01:45:32;1.40;;;1.30;;
8317;SDS011;4196;48.926;8.964;2023-02-01T01:48:21;2.17;;;1.40;;
8317;SDS011;4196;48.926;8.964;2023-02-01T01:51:13;2.00;;;1.57;;
8317;SDS011;4196;48.926;8.964;2023-02-01T01:54:11;1.50;;;1.40;;
8317;SDS011;4196;48.926;8.964;2023-02-01T01:57:04;2.40;;;1.63;;
8317;SDS011;4196;48.926;8.964;2023-02-01T02:00:00;1.77;;;1.63;;
8317;SDS011;4196;48.926;8.964;2023-02-01T02:03:21;1.97;;;1.57;;
8317;SDS011;4196;48.926;8.964;2023-02-01T02:06:17;2.80;;;1.63;;
8317;SDS011;4196;48.926;8.964;2023-02-01T02:09:14;2.83;;;1.40;;
8317;SDS011;4196;48.926;8.964;2023-02-01T02:12:01;2.90;;;1.40;;
8317;SDS011;4196;48.926;8.964;2023-02-01T02:14:47;1.30;;;1.20;;
8317;SDS011;4196;48.926;8.964;2023-02-01T02:23:53;1.83;;;1.50;;
8317;SDS011;4196;48.926;8.964;2023-02-01T02:40:32;1.70;;;1.40;;
8317;SDS011;4196;48.926;8.964;2023-02-01T02:43:48;1.63;;;1.10;;
8317;SDS011;4196;48.926;8.964;2023-02-01T02:47:02;1.23;;;1.13;;
8317;SDS011;4196;48.926;8.964;2023-02-01T02:50:17;2.00;;;1.40;;
8317;SDS011;4196;48.926;8.964;2023-02-01T02:56:46;1.30;;;1.10;;
8317;SDS011;4196;48.926;8.964;2023-02-01T02:59:53;1.53;;;1.40;;
8317;SDS011;4196;48.926;8.964;2023-02-01T03:03:02;1.70;;;1.50;;
8317;SDS011;4196;48.926;8.964;2023-02-01T03:06:11;1.27;;;1.17;;
8317;SDS011;4196;48.926;8.964;2023-02-01T03:09:03;2.13;;;1.80;;
8317;SDS011;4196;48.926;8.964;2023-02-01T03:11:55;1.20;;;1.10;;
8317;SDS011;4196;48.926;8.964;2023-02-01T03:15:07;1.90;;;1.10;;
8317;SDS011;4196;48.926;8.964;2023-02-01T03:18:00;3.43;;;1.23;;
8317;SDS011;4196;48.926;8.964;2023-02-01T03:20:51;1.20;;;1.10;;
8317;SDS011;4196;48.926;8.964;2023-02-01T03:23:40;1.37;;;1.23;;
8317;SDS011;4196;48.926;8.964;2023-02-01T03:26:29;1.17;;;1.07;;
8317;SDS011;4196;48.926;8.964;2023-02-01T03:29:22;1.77;;;1.20;;
8317;SDS011;4196;48.926;8.964;2023-02-01T03:32:13;0.90;;;0.90;;
8317;SDS011;4196;48.926;8.964;2023-02-01T03:34:59;2.23;;;2.03;;
8317;SDS011;4196;48.926;8.964;2023-02-01T03:37:45;1.20;;;1.10;;
8317;SDS011;4196;48.926;8.964;2023-02-01T03:40:34;1.60;;;1.27;;
8317;SDS011;4196;48.926;8.964;2023-02-01T03:43:22;1.40;;;0.90;;
8317;SDS011;4196;48.926;8.964;2023-02-01T03:46:15;2.43;;;0.97;;
8317;SDS011;4196;48.926;8.964;2023-02-01T03:49:09;1.03;;;0.93;;
8317;SDS011;4196;48.926;8.964;2023-02-01T03:52:00;0.97;;;0.97;;
8317;SDS011;4196;48.926;8.964;2023-02-01T03:54:48;0.73;;;0.73;;
8317;SDS011;4196;48.926;8.964;2023-02-01T03:57:38;1.30;;;1.20;;
8317;SDS011;4196;48.926;8.964;2023-02-01T04:00:29;1.10;;;1.00;;
8317;SDS011;4196;48.926;8.964;2023-02-01T04:03:17;1.90;;;1.63;;
8317;SDS011;4196;48.926;8.964;2023-02-01T04:06:04;1.80;;;1.37;;
8317;SDS011;4196;48.926;8.964;2023-02-01T04:08:52;1.30;;;1.20;;
8317;SDS011;4196;48.926;8.964;2023-02-01T04:11:38;1.60;;;1.10;;
8317;SDS011;4196;48.926;8.964;2023-02-01T04:14:25;1.30;;;1.20;;
8317;SDS011;4196;48.926;8.964;2023-02-01T04:17:11;1.30;;;1.13;;
8317;SDS011;4196;48.926;8.964;2023-02-01T04:19:57;4.27;;;1.50;;
8317;SDS011;4196;48.926;8.964;2023-02-01T04:22:43;1.97;;;1.27;;
8317;SDS011;4196;48.926;8.964;2023-02-01T04:25:30;3.00;;;1.60;;
8317;SDS011;4196;48.926;8.964;2023-02-01T04:28:16;2.90;;;1.67;;
8317;SDS011;4196;48.926;8.964;2023-02-01T04:31:03;1.43;;;1.10;;
8317;SDS011;4196;48.926;8.964;2023-02-01T04:33:49;2.27;;;1.27;;
8317;SDS011;4196;48.926;8.964;2023-02-01T04:36:36;1.67;;;1.10;;
8317;SDS011;4196;48.926;8.964;2023-02-01T04:39:23;2.07;;;1.70;;
8317;SDS011;4196;48.926;8.964;2023-02-01T04:42:09;2.07;;;1.23;;
8317;SDS011;4196;48.926;8.964;2023-02-01T04:44:55;1.30;;;1.20;;
8317;SDS011;4196;48.926;8.964;2023-02-01T04:47:42;1.50;;;1.20;;
8317;SDS011;4196;48.926;8.964;2023-02-01T04:50:29;1.10;;;1.00;;
8317;SDS011;4196;48.926;8.964;2023-02-01T04:53:15;1.37;;;1.27;;
8317;SDS011;4196;48.926;8.964;2023-02-01T04:56:02;1.43;;;1.33;;
8317;SDS011;4196;48.926;8.964;2023-02-01T04:58:49;0.97;;;0.83;;
8317;SDS011;4196;48.926;8.964;2023-02-01T05:01:35;1.03;;;1.03;;
8317;SDS011;4196;48.926;8.964;2023-02-01T05:04:22;1.43;;;1.00;;
8317;SDS011;4196;48.926;8.964;2023-02-01T05:07:08;2.13;;;1.30;;
8317;SDS011;4196;48.926;8.964;2023-02-01T05:09:54;1.30;;;1.20;;
8317;SDS011;4196;48.926;8.964;2023-02-01T05:12:42;1.63;;;1.50;;
8317;SDS011;4196;48.926;8.964;2023-02-01T05:15:49;2.37;;;1.60;;
8317;SDS011;4196;48.926;8.964;2023-02-01T05:18:36;1.50;;;1.37;;
8317;SDS011;4196;48.926;8.964;2023-02-01T05:21:23;2.03;;;1.57;;
8317;SDS011;4196;48.926;8.964;2023-02-01T05:24:09;2.03;;;1.70;;
8317;SDS011;4196;48.926;8.964;2023-02-01T05:26:55;2.60;;;1.60;;
8317;SDS011;4196;48.926;8.964;2023-02-01T05:29:42;1.50;;;1.40;;
8317;SDS011;4196;48.926;8.964;2023-02-01T05:32:28;4.30;;;1.60;;
8317;SDS011;4196;48.926;8.964;2023-02-01T05:35:15;1.10;;;1.10;;
8317;SDS011;4196;48.926;8.964;2023-02-01T05:38:01;1.90;;;1.40;;
8317;SDS011;4196;48.926;8.964;2023-02-01T05:40:48;4.73;;;1.77;;
8317;SDS011;4196;48.926;8.964;2023-02-01T05:43:35;1.30;;;1.20;;
8317;SDS011;4196;48.926;8.964;2023-02-01T05:46:22;1.23;;;0.87;;
8317;SDS011;4196;48.926;8.964;2023-02-01T05:49:08;1.00;;;1.00;;
8317;SDS011;4196;48.926;8.964;2023-02-01T05:51:55;1.00;;;1.00;;
8317;SDS011;4196;48.926;8.964;2023-02-01T05:54:45;2.33;;;1.53;;
8317;SDS011;4196;48.926;8.964;2023-02-01T05:57:32;2.13;;;1.23;;
8317;SDS011;4196;48.926;8.964;2023-02-01T06:00:19;1.50;;;1.40;;
8317;SDS011;4196;48.926;8.964;2023-02-01T06:03:07;1.77;;;1.33;;
8317;SDS011;4196;48.926;8.964;2023-02-01T06:05:54;1.83;;;1.30;;
8317;SDS011;4196;48.926;8.964;2023-02-01T06:08:40;2.30;;;1.50;;
8317;SDS011;4196;48.926;8.964;2023-02-01T06:11:26;3.03;;;1.50;;
8317;SDS011;4196;48.926;8.964;2023-02-01T06:14:18;3.90;;;2.37;;
8317;SDS011;4196;48.926;8.964;2023-02-01T06:17:04;7.00;;;2.20;;
8317;SDS011;4196;48.926;8.964;2023-02-01T06:19:52;3.43;;;2.07;;
8317;SDS011;4196;48.926;8.964;2023-02-01T06:22:38;4.37;;;2.27;;
8317;SDS011;4196;48.926;8.964;2023-02-01T06:25:25;4.17;;;2.73;;
8317;SDS011;4196;48.926;8.964;2023-02-01T06:28:11;4.43;;;2.23;;
8317;SDS011;4196;48.926;8.964;2023-02-01T06:30:58;5.70;;;2.73;;
8317;SDS011;4196;48.926;8.964;2023-02-01T06:33:49;4.27;;;2.97;;
8317;SDS011;4196;48.926;8.964;2023-02-01T06:36:36;5.43;;;2.67;;
8317;SDS011;4196;48.926;8.964;2023-02-01T06:39:23;10.73;;;2.40;;
8317;SDS011;4196;48.926;8.964;2023-02-01T06:42:10;3.17;;;2.43;;
8317;SDS011;4196;48.926;8.964;2023-02-01T06:44:56;5.20;;;2.50;;
8317;SDS011;4196;48.926;8.964;2023-02-01T06:47:42;3.00;;;2.40;;
8317;SDS011;4196;48.926;8.964;2023-02-01T06:50:28;3.20;;;2.70;;
8317;SDS011;4196;48.926;8.964;2023-02-01T06:53:15;5.37;;;2.40;;
8317;SDS011;4196;48.926;8.964;2023-02-01T06:56:02;6.77;;;2.90;;
8317;SDS011;4196;48.926;8.964;2023-02-01T06:58:48;6.00;;;3.10;;
8317;SDS011;4196;48.926;8.964;2023-02-01T07:01:35;3.70;;;2.77;;
8317;SDS011;4196;48.926;8.964;2023-02-01T07:04:22;5.30;;;2.67;;
8317;SDS011;4196;48.926;8.964;2023-02-01T07:07:08;6.73;;;2.50;;
8317;SDS011;4196;48.926;8.964;2023-02-01T07:09:54;3.87;;;2.43;;
8317;SDS011;4196;48.926;8.964;2023-02-01T07:12:41;5.50;;;3.10;;
8317;SDS011;4196;48.926;8.964;2023-02-01T07:15:27;6.83;;;2.70;;
8317;SDS011;4196;48.926;8.964;2023-02-01T07:18:14;6.40;;;2.63;;
8317;SDS011;4196;48.926;8.964;2023-02-01T07:21:00;5.60;;;3.70;;
8317;SDS011;4196;48.926;8.964;2023-02-01T07:23:47;3.47;;;2.13;;
8317;SDS011;4196;48.926;8.964;2023-02-01T07:26:34;8.33;;;2.80;;
8317;SDS011;4196;48.926;8.964;2023-02-01T07:29:20;10.73;;;3.33;;
8317;SDS011;4196;48.926;8.964;2023-02-01T07:32:07;5.73;;;2.40;;
8317;SDS011;4196;48.926;8.964;2023-02-01T07:34:53;5.43;;;2.83;;
8317;SDS011;4196;48.926;8.964;2023-02-01T07:37:39;6.10;;;3.17;;
8317;SDS011;4196;48.926;8.964;2023-02-01T07:40:26;4.57;;;2.57;;
8317;SDS011;4196;48.926;8.964;2023-02-01T07:43:14;4.57;;;2.43;;
8317;SDS011;4196;48.926;8.964;2023-02-01T07:46:02;4.27;;;3.00;;
8317;SDS011;4196;48.926;8.964;2023-02-01T07:48:49;5.13;;;3.33;;
8317;SDS011;4196;48.926;8.964;2023-02-01T07:51:36;6.53;;;3.10;;
8317;SDS011;4196;48.926;8.964;2023-02-01T07:54:22;6.47;;;3.20;;
8317;SDS011;4196;48.926;8.964;2023-02-01T07:57:09;5.13;;;2.47;;
8317;SDS011;4196;48.926;8.964;2023-02-01T07:59:57;4.70;;;2.93;;
8317;SDS011;4196;48.926;8.964;2023-02-01T08:03:03;5.63;;;2.97;;
8317;SDS011;4196;48.926;8.964;2023-02-01T08:05:56;6.63;;;2.93;;
8317;SDS011;4196;48.926;8.964;2023-02-01T08:08:43;7.83;;;3.40;;
8317;SDS011;4196;48.926;8.964;2023-02-01T08:11:31;5.17;;;3.40;;
8317;SDS011;4196;48.926;8.964;2023-02-01T08:14:18;9.50;;;4.43;;
8317;SDS011;4196;48.926;8.964;2023-02-01T08:17:04;4.17;;;2.47;;
8317;SDS011;4196;48.926;8.964;2023-02-01T08:19:50;6.67;;;3.00;;
8317;SDS011;4196;48.926;8.964;2023-02-01T08:22:37;5.50;;;3.67;;
8317;SDS011;4196;48.926;8.964;2023-02-01T08:25:23;5.63;;;2.70;;
8317;SDS011;4196;48.926;8.964;2023-02-01T08:28:10;5.87;;;2.70;;
8317;SDS011;4196;48.926;8.964;2023-02-01T08:30:57;7.30;;;2.73;;
8317;SDS011;4196;48.926;8.964;2023-02-01T08:33:44;4.17;;;2.77;;
8317;SDS011;4196;48.926;8.964;2023-02-01T08:36:34;3.97;;;2.50;;
8317;SDS011;4196;48.926;8.964;2023-02-01T08:39:21;4.70;;;3.07;;
8317;SDS011;4196;48.926;8.964;2023-02-01T08:42:08;6.10;;;2.63;;
8317;SDS011;4196;48.926;8.964;2023-02-01T08:45:13;8.40;;;3.43;;
8317;SDS011;4196;48.926;8.964;2023-02-01T08:47:59;5.03;;;2.30;;
8317;SDS011;4196;48.926;8.964;2023-02-01T08:50:46;5.73;;;2.77;;
8317;SDS011;4196;48.926;8.964;2023-02-01T08:53:32;3.47;;;2.33;;
8317;SDS011;4196;48.926;8.964;2023-02-01T08:56:19;3.57;;;2.10;;
8317;SDS011;4196;48.926;8.964;2023-02-01T08:59:06;3.20;;;1.73;;
8317;SDS011;4196;48.926;8.964;2023-02-01T09:01:52;7.97;;;3.03;;
8317;SDS011;4196;48.926;8.964;2023-02-01T09:04:39;4.50;;;2.13;;
8317;SDS011;4196;48.926;8.964;2023-02-01T09:07:26;2.70;;;1.70;;
8317;SDS011;4196;48.926;8.964;2023-02-01T09:10:13;3.73;;;2.40;;
8317;SDS011;4196;48.926;8.964;2023-02-01T09:13:02;6.77;;;2.70;;
8317;SDS011;4196;48.926;8.964;2023-02-01T09:15:50;4.50;;;2.00;;
8317;SDS011;4196;48.926;8.964;2023-02-01T09:18:37;12.30;;;2.60;;
8317;SDS011;4196;48.926;8.964;2023-02-01T09:21:41;6.13;;;3.63;;
8317;SDS011;4196;48.926;8.964;2023-02-01T09:24:28;6.23;;;3.00;;
8317;SDS011;4196;48.926;8.964;2023-02-01T09:27:14;6.87;;;2.90;;
8317;SDS011;4196;48.926;8.964;2023-02-01T09:30:01;5.70;;;2.50;;
8317;SDS011;4196;48.926;8.964;2023-02-01T09:32:49;7.93;;;3.10;;
8317;SDS011;4196;48.926;8.964;2023-02-01T09:35:35;9.03;;;4.50;;
8317;SDS011;4196;48.926;8.964;2023-02-01T09:38:21;7.87;;;3.13;;
8317;SDS011;4196;48.926;8.964;2023-02-01T09:41:16;7.80;;;3.17;;
8317;SDS011;4196;48.926;8.964;2023-02-01T09:47:09;4.60;;;2.93;;
8317;SDS011;4196;48.926;8.964;2023-02-01T09:50:00;6.57;;;2.63;;
8317;SDS011;4196;48.926;8.964;2023-02-01T09:52:54;4.83;;;2.27;;
8317;SDS011;4196;48.926;8.964;2023-02-01T09:55:48;11.70;;;2.20;;
8317;SDS011;4196;48.926;8.964;2023-02-01T10:01:23;6.43;;;2.60;;
8317;SDS011;4196;48.926;8.964;2023-02-01T10:04:12;3.53;;;2.10;;
8317;SDS011;4196;48.926;8.964;2023-02-01T10:07:10;4.27;;;2.23;;
8317;SDS011;4196;48.926;8.964;2023-02-01T10:10:22;6.53;;;2.57;;
8317;SDS011;4196;48.926;8.964;2023-02-01T10:16:43;8.00;;;3.13;;
8317;SDS011;4196;48.926;8.964;2023-02-01T10:19:59;8.40;;;2.97;;
8317;SDS011;4196;48.926;8.964;2023-02-01T10:26:20;5.33;;;2.80;;
8317;SDS011;4196;48.926;8.964;2023-02-01T10:29:20;7.07;;;2.93;;
8317;SDS011;4196;48.926;8.964;2023-02-01T10:32:19;3.07;;;2.43;;
8317;SDS011;4196;48.926;8.964;2023-02-01T10:35:17;6.10;;;2.10;;
8317;SDS011;4196;48.926;8.964;2023-02-01T10:38:20;5.40;;;2.57;;
8317;SDS011;4196;48.926;8.964;2023-02-01T10:41:13;4.27;;;2.83;;
8317;SDS011;4196;48.926;8.964;2023-02-01T10:44:03;7.03;;;2.00;;
8317;SDS011;4196;48.926;8.964;2023-02-01T10:46:57;8.23;;;3.27;;
8317;SDS011;4196;48.926;8.964;2023-02-01T10:49:49;10.30;;;2.57;;
8317;SDS011;4196;48.926;8.964;2023-02-01T10:58:27;6.00;;;2.63;;
8317;SDS011;4196;48.926;8.964;2023-02-01T11:01:16;5.33;;;2.53;;
8317;SDS011;4196;48.926;8.964;2023-02-01T11:04:09;5.13;;;3.27;;
8317;SDS011;4196;48.926;8.964;2023-02-01T11:09:52;9.97;;;3.40;;
8317;SDS011;4196;48.926;8.964;2023-02-01T11:12:44;4.93;;;3.57;;
8317;SDS011;4196;48.926;8.964;2023-02-01T11:15:42;8.67;;;3.27;;
8317;SDS011;4196;48.926;8.964;2023-02-01T11:18:31;4.97;;;2.57;;
8317;SDS011;4196;48.926;8.964;2023-02-01T11:21:21;12.10;;;2.13;;
8317;SDS011;4196;48.926;8.964;2023-02-01T11:24:11;10.30;;;3.07;;
8317;SDS011;4196;48.926;8.964;2023-02-01T11:27:13;8.83;;;2.80;;
8317;SDS011;4196;48.926;8.964;2023-02-01T11:30:16;10.97;;;4.87;;
8317;SDS011;4196;48.926;8.964;2023-02-01T11:33:05;7.30;;;2.13;;
8317;SDS011;4196;48.926;8.964;2023-02-01T11:35:58;5.10;;;2.17;;
8317;SDS011;4196;48.926;8.964;2023-02-01T11:38:50;4.63;;;2.83;;
8317;SDS011;4196;48.926;8.964;2023-02-01T11:41:43;10.67;;;3.93;;
8317;SDS011;4196;48.926;8.964;2023-02-01T11:44:42;9.63;;;2.30;;
8317;SDS011;4196;48.926;8.964;2023-02-01T11:47:31;20.20;;;3.23;;
8317;SDS011;4196;48.926;8.964;2023-02-01T12:03:02;5.27;;;2.63;;
8317;SDS011;4196;48.926;8.964;2023-02-01T12:06:13;6.27;;;2.57;;
8317;SDS011;4196;48.926;8.964;2023-02-01T12:09:08;4.17;;;2.03;;
8317;SDS011;4196;48.926;8.964;2023-02-01T12:12:04;5.03;;;3.10;;
8317;SDS011;4196;48.926;8.964;2023-02-01T12:15:15;12.37;;;3.90;;
8317;SDS011;4196;48.926;8.964;2023-02-01T12:21:28;11.13;;;2.73;;
8317;SDS011;4196;48.926;8.964;2023-02-01T12:43:11;14.90;;;4.23;;
8317;SDS011;4196;48.926;8.964;2023-02-01T12:46:18;7.60;;;2.87;;
8317;SDS011;4196;48.926;8.964;2023-02-01T12:49:11;9.23;;;2.43;;
8317;SDS011;4196;48.926;8.964;2023-02-01T12:52:21;4.00;;;2.40;;
8317;SDS011;4196;48.926;8.964;2023-02-01T12:58:32;6.83;;;1.70;;
8317;SDS011;4196;48.926;8.964;2023-02-01T13:02:04;4.67;;;1.60;;
8317;SDS011;4196;48.926;8.964;2023-02-01T13:04:42;10.63;;;2.93;;
8317;SDS011;4196;48.926;8.964;2023-02-01T13:07:41;15.43;;;2.17;;
8317;SDS011;4196;48.926;8.964;2023-02-01T13:10:55;3.00;;;2.23;;
8317;SDS011;4196;48.926;8.964;2023-02-01T13:13:48;4.63;;;2.53;;
8317;SDS011;4196;48.926;8.964;2023-02-01T13:16:51;2.77;;;2.00;;
8317;SDS011;4196;48.926;8.964;2023-02-01T13:22:37;7.37;;;2.23;;
8317;SDS011;4196;48.926;8.964;2023-02-01T13:28:45;4.80;;;3.10;;
8317;SDS011;4196;48.926;8.964;2023-02-01T13:35:18;11.90;;;2.90;;
8317;SDS011;4196;48.926;8.964;2023-02-01T13:44:15;4.30;;;1.90;;
8317;SDS011;4196;48.926;8.964;2023-02-01T13:47:21;6.00;;;2.23;;
8317;SDS011;4196;48.926;8.964;2023-02-01T13:56:09;6.03;;;2.73;;
8317;SDS011;4196;48.926;8.964;2023-02-01T13:59:00;9.77;;;2.20;;
8317;SDS011;4196;48.926;8.964;2023-02-01T14:08:14;5.27;;;2.17;;
8317;SDS011;4196;48.926;8.964;2023-02-01T14:11:52;6.90;;;2.97;;
8317;SDS011;4196;48.926;8.964;2023-02-01T14:23:21;3.20;;;2.10;;
8317;SDS011;4196;48.926;8.964;2023-02-01T14:26:11;6.97;;;2.60;;
8317;SDS011;4196;48.926;8.964;2023-02-01T14:31:54;11.37;;;3.53;;
8317;SDS011;4196;48.926;8.964;2023-02-01T14:37:32;9.37;;;3.57;;
8317;SDS011;4196;48.926;8.964;2023-02-01T14:40:26;2.87;;;2.57;;
8317;SDS011;4196;48.926;8.964;2023-02-01T14:43:14;5.70;;;3.00;;
8317;SDS011;4196;48.926;8.964;2023-02-01T14:46:19;4.73;;;1.87;;
8317;SDS011;4196;48.926;8.964;2023-02-01T14:49:06;6.90;;;3.53;;
8317;SDS011;4196;48.926;8.964;2023-02-01T14:51:52;5.20;;;1.80;;
8317;SDS011;4196;48.926;8.964;2023-02-01T14:54:39;7.30;;;3.07;;
8317;SDS011;4196;48.926;8.964;2023-02-01T14:57:26;6.60;;;2.43;;
8317;SDS011;4196;48.926;8.964;2023-02-01T15:00:17;11.43;;;2.30;;
8317;SDS011;4196;48.926;8.964;2023-02-01T15:06:20;2.20;;;1.70;;
8317;SDS011;4196;48.926;8.964;2023-02-01T15:09:20;6.10;;;3.47;;
8317;SDS011;4196;48.926;8.964;2023-02-01T15:18:03;4.73;;;3.03;;
8317;SDS011;4196;48.926;8.964;2023-02-01T15:20:56;4.30;;;1.97;;
8317;SDS011;4196;48.926;8.964;2023-02-01T15:24:19;6.67;;;3.30;;
8317;SDS011;4196;48.926;8.964;2023-02-01T15:27:10;5.67;;;3.17;;
8317;SDS011;4196;48.926;8.964;2023-02-01T15:30:16;5.30;;;2.83;;
8317;SDS011;4196;48.926;8.964;2023-02-01T15:39:12;5.17;;;2.70;;
8317;SDS011;4196;48.926;8.964;2023-02-01T15:41:59;10.80;;;3.80;;
8317;SDS011;4196;48.926;8.964;2023-02-01T15:44:55;19.67;;;7.57;;
8317;SDS011;4196;48.926;8.964;2023-02-01T15:47:42;9.63;;;5.40;;
8317;SDS011;4196;48.926;8.964;2023-02-01T15:50:34;9.30;;;3.70;;
8317;SDS011;4196;48.926;8.964;2023-02-01T15:53:25;11.77;;;4.03;;
8317;SDS011;4196;48.926;8.964;2023-02-01T15:56:20;6.13;;;2.70;;
8317;SDS011;4196;48.926;8.964;2023-02-01T15:59:15;6.83;;;2.40;;
8317;SDS011;4196;48.926;8.964;2023-02-01T16:02:03;14.23;;;6.27;;
8317;SDS011;4196;48.926;8.964;2023-02-01T16:04:50;6.40;;;3.37;;
8317;SDS011;4196;48.926;8.964;2023-02-01T16:07:37;20.47;;;8.73;;
8317;SDS011;4196;48.926;8.964;2023-02-01T16:10:25;11.70;;;4.33;;
8317;SDS011;4196;48.926;8.964;2023-02-01T16:13:15;7.23;;;2.47;;
8317;SDS011;4196;48.926;8.964;2023-02-01T16:16:02;5.27;;;2.47;;
8317;SDS011;4196;48.926;8.964;2023-02-01T16:18:53;4.10;;;2.50;;
8317;SDS011;4196;48.926;8.964;2023-02-01T16:21:40;9.40;;;3.67;;
8317;SDS011;4196;48.926;8.964;2023-02-01T16:24:26;20.37;;;3.23;;
8317;SDS011;4196;48.926;8.964;2023-02-01T16:27:13;6.00;;;2.80;;
8317;SDS011;4196;48.926;8.964;2023-02-01T16:30:00;5.20;;;2.50;;
8317;SDS011;4196;48.926;8.964;2023-02-01T16:32:46;4.47;;;2.40;;
8317;SDS011;4196;48.926;8.964;2023-02-01T16:35:36;8.47;;;3.37;;
8317;SDS011;4196;48.926;8.964;2023-02-01T16:38:23;3.73;;;1.93;;
8317;SDS011;4196;48.926;8.964;2023-02-01T16:41:11;6.20;;;2.00;;
8317;SDS011;4196;48.926;8.964;2023-02-01T16:43:59;7.30;;;2.60;;
8317;SDS011;4196;48.926;8.964;2023-02-01T16:46:46;6.27;;;2.60;;
8317;SDS011;4196;48.926;8.964;2023-02-01T16:49:33;9.70;;;4.10;;
8317;SDS011;4196;48.926;8.964;2023-02-01T16:52:21;7.30;;;2.87;;
8317;SDS011;4196;48.926;8.964;2023-02-01T16:55:13;4.53;;;2.40;;
8317;SDS011;4196;48.926;8.964;2023-02-01T16:58:02;7.70;;;2.40;;
8317;SDS011;4196;48.926;8.964;2023-02-01T17:00:49;8.83;;;3.57;;
8317;SDS011;4196;48.926;8.964;2023-02-01T17:03:37;5.00;;;2.27;;
8317;SDS011;4196;48.926;8.964;2023-02-01T17:06:25;5.33;;;2.47;;
8317;SDS011;4196;48.926;8.964;2023-02-01T17:09:13;5.37;;;2.57;;
8317;SDS011;4196;48.926;8.964;2023-02-01T17:11:59;7.93;;;3.00;;
8317;SDS011;4196;48.926;8.964;2023-02-01T17:14:46;8.53;;;2.20;;
8317;SDS011;4196;48.926;8.964;2023-02-01T17:17:33;8.87;;;2.90;;
8317;SDS011;4196;48.926;8.964;2023-02-01T17:20:24;2.93;;;2.20;;
8317;SDS011;4196;48.926;8.964;2023-02-01T17:23:15;4.53;;;2.03;;
8317;SDS011;4196;48.926;8.964;2023-02-01T17:26:01;2.13;;;1.63;;
8317;SDS011;4196;48.926;8.964;2023-02-01T17:28:48;12.23;;;3.33;;
8317;SDS011;4196;48.926;8.964;2023-02-01T17:31:36;3.60;;;1.60;;
8317;SDS011;4196;48.926;8.964;2023-02-01T17:34:34;11.13;;;3.37;;
8317;SDS011;4196;48.926;8.964;2023-02-01T17:37:22;4.57;;;1.90;;
8317;SDS011;4196;48.926;8.964;2023-02-01T17:40:14;25.67;;;2.63;;
8317;SDS011;4196;48.926;8.964;2023-02-01T17:43:00;5.90;;;2.80;;
8317;SDS011;4196;48.926;8.964;2023-02-01T17:46:21;11.20;;;3.13;;
8317;SDS011;4196;48.926;8.964;2023-02-01T17:49:01;3.23;;;2.07;;
8317;SDS011;4196;48.926;8.964;2023-02-01T17:51:48;3.90;;;2.23;;
8317;SDS011;4196;48.926;8.964;2023-02-01T17:54:35;10.33;;;3.17;;
8317;SDS011;4196;48.926;8.964;2023-02-01T17:57:23;10.20;;;5.03;;
8317;SDS011;4196;48.926;8.964;2023-02-01T18:00:10;5.70;;;2.63;;
8317;SDS011;4196;48.926;8.964;2023-02-01T18:02:58;4.73;;;1.90;;
8317;SDS011;4196;48.926;8.964;2023-02-01T18:05:46;9.17;;;3.67;;
8317;SDS011;4196;48.926;8.964;2023-02-01T18:08:36;4.10;;;2.50;;
8317;SDS011;4196;48.926;8.964;2023-02-01T18:11:23;3.83;;;2.10;;
8317;SDS011;4196;48.926;8.964;2023-02-01T18:14:13;7.20;;;2.70;;
8317;SDS011;4196;48.926;8.964;2023-02-01T18:16:59;6.33;;;2.70;;
8317;SDS011;4196;48.926;8.964;2023-02-01T18:19:46;7.33;;;3.37;;
8317;SDS011;4196;48.926;8.964;2023-02-01T18:22:32;3.80;;;2.13;;
8317;SDS011;4196;48.926;8.964;2023-02-01T18:28:13;5.60;;;2.40;;
8317;SDS011;4196;48.926;8.964;2023-02-01T18:31:01;8.07;;;2.90;;
8317;SDS011;4196;48.926;8.964;2023-02-01T18:33:50;8.33;;;2.97;;
8317;SDS011;4196;48.926;8.964;2023-02-01T18:36:38;8.47;;;1.50;;
8317;SDS011;4196;48.926;8.964;2023-02-01T18:39:24;3.37;;;1.77;;
8317;SDS011;4196;48.926;8.964;2023-02-01T18:42:10;6.83;;;2.60;;
8317;SDS011;4196;48.926;8.964;2023-02-01T18:44:57;4.23;;;2.07;;
8317;SDS011;4196;48.926;8.964;2023-02-01T18:47:46;6.07;;;3.20;;
8317;SDS011;4196;48.926;8.964;2023-02-01T18:50:33;7.27;;;2.03;;
8317;SDS011;4196;48.926;8.964;2023-02-01T18:53:22;4.53;;;1.80;;
8317;SDS011;4196;48.926;8.964;2023-02-01T18:56:12;2.53;;;1.60;;
8317;SDS011;4196;48.926;8.964;2023-02-01T18:58:59;15.50;;;2.70;;
8317;SDS011;4196;48.926;8.964;2023-02-01T19:01:45;12.70;;;3.20;;
8317;SDS011;4196;48.926;8.964;2023-02-01T19:04:32;4.33;;;1.70;;
8317;SDS011;4196;48.926;8.964;2023-02-01T19:07:18;7.97;;;4.07;;
8317;SDS011;4196;48.926;8.964;2023-02-01T19:10:06;4.37;;;2.50;;
8317;SDS011;4196;48.926;8.964;2023-02-01T19:12:54;3.40;;;2.03;;
8317;SDS011;4196;48.926;8.964;2023-02-01T19:15:41;4.63;;;2.27;;
8317;SDS011;4196;48.926;8.964;2023-02-01T19:18:28;3.90;;;1.67;;
8317;SDS011;4196;48.926;8.964;2023-02-01T19:21:15;14.43;;;2.80;;
8317;SDS011;4196;48.926;8.964;2023-02-01T19:24:01;4.63;;;1.87;;
8317;SDS011;4196;48.926;8.964;2023-02-01T19:26:48;8.43;;;2.97;;
8317;SDS011;4196;48.926;8.964;2023-02-01T19:29:36;9.83;;;2.23;;
8317;SDS011;4196;48.926;8.964;2023-02-01T19:32:23;4.63;;;2.20;;
8317;SDS011;4196;48.926;8.964;2023-02-01T19:35:10;3.70;;;2.17;;
8317;SDS011;4196;48.926;8.964;2023-02-01T19:37:58;4.37;;;2.00;;
8317;SDS011;4196;48.926;8.964;2023-02-01T19:40:47;6.70;;;1.67;;
8317;SDS011;4196;48.926;8.964;2023-02-01T19:43:34;4.60;;;2.20;;
8317;SDS011;4196;48.926;8.964;2023-02-01T19:46:21;8.97;;;2.40;;
8317;SDS011;4196;48.926;8.964;2023-02-01T19:49:07;5.73;;;1.93;;
8317;SDS011;4196;48.926;8.964;2023-02-01T19:51:57;7.23;;;2.83;;
8317;SDS011;4196;48.926;8.964;2023-02-01T19:54:43;4.00;;;1.90;;
8317;SDS011;4196;48.926;8.964;2023-02-01T19:57:30;6.10;;;1.77;;
8317;SDS011;4196;48.926;8.964;2023-02-01T20:00:16;6.93;;;2.50;;
8317;SDS011;4196;48.926;8.964;2023-02-01T20:03:07;1.60;;;1.47;;